Bankstown, Australia
Current Conditions -  °F | °C
As of 10:00 AM on Friday 28 Nov 2014 (Local Time) from YSSY Reporting Station
Scattered Clouds Scattered Clouds  
Wind Chill: 70°   Ceiling: Unl
Heat Index: 70°   Visibility: 6mi
Dew Point: 48°   Wind: 10mph
Humidity: 46%   Direction: 150°SSE
Pressure: 30.21"   Gusts: NA
Location:  33.92°S, 151.03°E
Report Text: YSSY 272300Z 15009KT 9999 FEW040 SCT050 21/09 Q1023 NOSIG
Loading
Personal Weather Stations






























Interactive Weather Map New forecast layout! Learn more

10-Day Weather Forecast

Advertisements
Track Severe Weather on mobile